Time;durP1;ratioP1;P1;durP2;ratioP2;P2;SDS_P1;SDS_P2;PMS_P1;PMS_P2;Temp;Humidity;BMP_temperature;BMP_pressure;BME280_temperature;BME280_humidity;BME280_pressure;Samples;Min_cycle;Max_cycle;Signal;HPM_P1;HPM_P2
2021/06/14 08:00:56;;;;;;;2.45;1.10;;;34.10;68.00;;;;;;3556598;23;20245;-71
2021/06/14 08:03:24;;;;;;;1.75;1.10;;;33.20;69.90;;;;;;4895925;29;20222;-71
2021/06/14 08:05:51;;;;;;;3.78;1.20;;;33.10;69.50;;;;;;4898037;29;20221;-71
2021/06/14 08:08:19;;;;;;;2.10;1.10;;;33.00;69.70;;;;;;4885273;29;20231;-71
2021/06/14 08:10:47;;;;;;;4.10;1.30;;;32.70;69.50;;;;;;4877492;29;20662;-70
2021/06/14 08:13:15;;;;;;;2.58;1.42;;;33.40;70.80;;;;;;4879687;29;20265;-71
2021/06/14 08:15:42;;;;;;;2.38;1.40;;;33.20;69.20;;;;;;4878588;29;20215;-71
2021/06/14 08:18:18;;;;;;;1.70;1.38;;;33.50;70.50;;;;;;4879852;29;20239;-71
2021/06/14 08:21:00;;;;;;;3.03;1.15;;;33.50;68.90;;;;;;4879895;29;20298;-71
2021/06/14 08:26:20;;;;;;;6.30;1.45;;;33.10;69.60;;;;;;4880051;29;20206;-71
2021/06/14 08:28:47;;;;;;;1.42;1.27;;;33.10;71.60;;;;;;4879390;29;20239;-70
2021/06/14 08:31:14;;;;;;;4.32;1.00;;;33.50;69.80;;;;;;4879858;29;20252;-71
2021/06/14 08:33:40;;;;;;;4.57;2.25;;;33.60;68.80;;;;;;4879655;29;20215;-70
2021/06/14 08:36:09;;;;;;;3.13;1.30;;;33.70;70.20;;;;;;4879828;29;20246;-70
2021/06/14 08:38:36;;;;;;;2.47;1.60;;;34.10;69.20;;;;;;4879891;29;20239;-71
2021/06/14 08:41:03;;;;;;;2.22;1.40;;;34.00;69.20;;;;;;4879617;29;20217;-71
2021/06/14 08:43:30;;;;;;;2.03;1.30;;;33.70;69.70;;;;;;4879483;29;20211;-71
2021/06/14 08:45:58;;;;;;;3.08;1.60;;;33.40;68.80;;;;;;4879388;29;20218;-70
2021/06/14 08:48:26;;;;;;;1.88;1.10;;;32.80;69.30;;;;;;4875456;29;20242;-71
2021/06/14 08:50:53;;;;;;;3.35;1.00;;;32.70;70.00;;;;;;4878783;29;20263;-71
2021/06/14 08:53:22;;;;;;;2.88;1.20;;;33.10;71.20;;;;;;4879177;29;20212;-71
2021/06/14 08:55:49;;;;;;;3.03;1.30;;;33.40;70.60;;;;;;4879308;29;20563;-71
2021/06/14 08:58:16;;;;;;;3.30;1.38;;;33.40;69.80;;;;;;4879329;29;20266;-71
2021/06/14 09:00:43;;;;;;;2.85;1.23;;;33.60;69.50;;;;;;4879868;29;20217;-71
2021/06/14 09:03:10;;;;;;;2.28;1.40;;;33.30;70.80;;;;;;4879196;29;20218;-72
2021/06/14 09:05:37;;;;;;;4.22;1.42;;;33.20;68.10;;;;;;4878697;29;20925;-71
2021/06/14 09:08:07;;;;;;;2.15;1.38;;;33.00;70.50;;;;;;4878685;29;20243;-72
2021/06/14 09:10:38;;;;;;;3.08;1.40;;;33.00;70.30;;;;;;4879203;29;20207;-72
2021/06/14 09:13:13;;;;;;;2.58;1.45;;;33.00;69.30;;;;;;4879130;29;20222;-71
2021/06/14 09:15:40;;;;;;;2.63;1.38;;;33.00;67.50;;;;;;4877919;29;20221;-71
2021/06/14 09:18:24;;;;;;;6.00;1.58;;;32.80;69.20;;;;;;4878092;29;20372;-71
2021/06/14 09:20:55;;;;;;;3.28;1.50;;;32.70;70.50;;;;;;4878365;29;20214;-72
2021/06/14 09:23:23;;;;;;;3.22;1.27;;;33.20;70.80;;;;;;4878846;29;20229;-70
2021/06/14 09:25:51;;;;;;;4.93;1.50;;;33.40;70.00;;;;;;4878729;29;20215;-70
2021/06/14 09:28:18;;;;;;;6.45;1.42;;;33.70;69.30;;;;;;4878686;29;20273;-71
2021/06/14 09:30:45;;;;;;;3.45;1.10;;;33.50;67.80;;;;;;4878579;29;20207;-71
2021/06/14 09:33:22;;;;;;;2.70;1.50;;;33.40;68.20;;;;;;4878377;29;20207;-70
2021/06/14 09:35:52;;;;;;;2.97;1.20;;;33.30;68.60;;;;;;4878857;29;20214;-71
2021/06/14 09:38:20;;;;;;;1.80;1.30;;;33.40;67.40;;;;;;4878433;29;20247;-70
2021/06/14 09:40:49;;;;;;;1.52;1.17;;;33.20;71.60;;;;;;4878343;29;20211;-71
2021/06/14 09:43:26;;;;;;;2.10;1.23;;;33.10;68.70;;;;;;4878125;29;20207;-71
2021/06/14 09:45:53;;;;;;;3.08;1.20;;;33.30;68.70;;;;;;4878651;29;20219;-77
2021/06/14 09:48:22;;;;;;;3.00;1.25;;;33.00;66.80;;;;;;4878197;29;20238;-73
2021/06/14 09:50:51;;;;;;;3.53;1.38;;;32.80;69.70;;;;;;4878478;29;20226;-78
2021/06/14 09:53:19;;;;;;;4.32;1.33;;;32.80;70.60;;;;;;4878056;29;20665;-73
2021/06/14 09:55:48;;;;;;;3.50;1.30;;;32.90;67.10;;;;;;4874510;29;20220;-74
2021/06/14 09:58:21;;;;;;;7.32;1.40;;;32.80;69.00;;;;;;4876662;29;20242;-70
2021/06/14 10:00:53;;;;;;;3.03;1.40;;;32.30;67.60;;;;;;4877203;29;20283;-73
2021/06/14 10:03:20;;;;;;;2.60;1.33;;;32.00;66.80;;;;;;4876718;29;20247;-74
2021/06/14 10:05:48;;;;;;;2.00;1.17;;;31.90;68.30;;;;;;4876993;29;20688;-74
2021/06/14 10:08:29;;;;;;;3.30;1.50;;;31.60;70.70;;;;;;4876720;29;20330;-75
2021/06/14 10:11:01;;;;;;;2.45;1.27;;;31.40;70.40;;;;;;4877016;29;20214;-75
2021/06/14 10:13:29;;;;;;;1.17;1.08;;;31.10;69.70;;;;;;4878476;29;20223;-74
2021/06/14 10:16:02;;;;;;;1.60;1.10;;;30.80;71.20;;;;;;4878477;29;20222;-73
2021/06/14 10:18:39;;;;;;;2.13;1.10;;;30.40;72.70;;;;;;4877946;29;20271;-70
2021/06/14 10:21:08;;;;;;;1.67;1.20;;;30.00;73.70;;;;;;4877791;29;20674;-70
2021/06/14 10:23:35;;;;;;;3.55;1.40;;;29.80;73.50;;;;;;4878258;29;20215;-70
2021/06/14 10:26:03;;;;;;;1.80;1.50;;;29.80;77.70;;;;;;4878465;29;20211;-72
2021/06/14 10:28:31;;;;;;;6.68;1.50;;;29.80;73.70;;;;;;4881309;29;20714;-72
2021/06/14 10:30:58;;;;;;;2.00;1.17;;;29.70;75.00;;;;;;4882527;29;20219;-72
2021/06/14 10:33:28;;;;;;;2.30;1.30;;;29.70;74.70;;;;;;4880756;29;20267;-73
2021/06/14 10:35:57;;;;;;;14.27;1.85;;;29.50;74.60;;;;;;4881451;29;20222;-73
2021/06/14 10:38:24;;;;;;;3.33;1.60;;;29.30;73.00;;;;;;4881649;29;20253;-72
2021/06/14 10:40:55;;;;;;;2.33;1.20;;;29.10;74.80;;;;;;4880909;29;20250;-72
2021/06/14 10:43:26;;;;;;;3.33;1.20;;;29.00;73.00;;;;;;4880928;29;20294;-73
2021/06/14 10:45:56;;;;;;;2.90;1.00;;;28.80;74.70;;;;;;4881068;29;20263;-73
2021/06/14 10:48:29;;;;;;;3.67;1.13;;;28.80;74.50;;;;;;4880256;29;20231;-73
2021/06/14 10:50:57;;;;;;;3.05;1.10;;;29.00;75.60;;;;;;4880736;29;20219;-72
2021/06/14 10:53:26;;;;;;;1.70;1.02;;;29.10;75.20;;;;;;4880430;29;20584;-73
2021/06/14 10:55:54;;;;;;;3.10;1.23;;;29.10;75.40;;;;;;4880668;29;20602;-73
2021/06/14 10:58:22;;;;;;;5.75;1.45;;;29.10;75.30;;;;;;4880624;29;20296;-73
2021/06/14 11:01:00;;;;;;;1.80;1.13;;;29.20;74.20;;;;;;4881152;29;20216;-74
2021/06/14 11:03:40;;;;;;;2.55;1.10;;;29.20;74.60;;;;;;4880232;29;20215;-73
2021/06/14 11:06:16;;;;;;;2.63;1.73;;;29.10;75.10;;;;;;4880354;29;20217;-72
2021/06/14 11:08:44;;;;;;;3.85;1.58;;;29.20;76.10;;;;;;4880672;29;20317;-73
2021/06/14 11:11:12;;;;;;;4.13;1.58;;;29.20;75.90;;;;;;4880488;29;20243;-73
2021/06/14 11:13:48;;;;;;;1.90;1.17;;;29.40;76.90;;;;;;4880020;29;20547;-73
2021/06/14 11:16:16;;;;;;;1.30;1.17;;;29.30;74.80;;;;;;4880270;29;20210;-72
2021/06/14 11:18:44;;;;;;;6.50;1.33;;;29.20;72.80;;;;;;4880970;29;20239;-73
2021/06/14 11:21:13;;;;;;;5.25;1.35;;;29.00;71.50;;;;;;4880703;29;20280;-72
2021/06/14 11:23:42;;;;;;;5.28;1.20;;;29.00;73.90;;;;;;4880377;29;20208;-72
2021/06/14 11:26:11;;;;;;;4.07;1.17;;;29.00;76.00;;;;;;4892232;29;20211;-72
2021/06/14 11:28:39;;;;;;;2.38;1.33;;;29.00;77.20;;;;;;4899178;29;20693;-72
2021/06/14 11:31:17;;;;;;;1.83;1.33;;;29.00;74.70;;;;;;4892122;29;20210;-70
2021/06/14 11:33:47;;;;;;;2.13;1.25;;;29.10;75.30;;;;;;4871751;29;20211;-73
2021/06/14 11:36:17;;;;;;;1.70;1.35;;;28.90;73.00;;;;;;4879906;29;20211;-70
2021/06/14 11:38:44;;;;;;;3.17;1.08;;;29.00;75.00;;;;;;4879000;29;20265;-73
2021/06/14 11:41:11;;;;;;;4.07;1.58;;;29.00;74.50;;;;;;4879501;29;20215;-73
2021/06/14 11:43:38;;;;;;;6.20;1.30;;;28.90;77.80;;;;;;4880496;29;20212;-74
2021/06/14 11:46:18;;;;;;;4.05;1.10;;;28.80;75.30;;;;;;4880159;29;20218;-74
2021/06/14 11:48:51;;;;;;;4.57;1.40;;;28.90;71.10;;;;;;4879823;29;20247;-73
2021/06/14 11:51:19;;;;;;;2.90;1.85;;;28.80;75.80;;;;;;4879802;29;20276;-74
2021/06/14 11:53:53;;;;;;;2.58;1.02;;;28.80;74.80;;;;;;4879746;29;20219;-74
2021/06/14 11:56:20;;;;;;;4.47;1.13;;;28.90;74.40;;;;;;4878779;29;20576;-74
2021/06/14 11:58:48;;;;;;;3.05;1.20;;;28.80;73.90;;;;;;4879770;29;20239;-73
2021/06/14 12:01:15;;;;;;;1.73;1.00;;;29.00;72.40;;;;;;4879822;29;20687;-74
2021/06/14 12:03:41;;;;;;;1.92;0.90;;;29.00;69.90;;;;;;4880943;29;20211;-73
2021/06/14 12:06:10;;;;;;;1.38;0.98;;;29.20;65.80;;;;;;4881333;29;20240;-74
2021/06/14 12:08:36;;;;;;;1.67;1.15;;;29.00;65.90;;;;;;4879752;29;20234;-74
2021/06/14 12:11:08;;;;;;;3.47;1.10;;;29.00;69.60;;;;;;4879810;29;20214;-74
2021/06/14 12:13:36;;;;;;;5.40;1.42;;;28.80;71.40;;;;;;4879478;29;20671;-74
2021/06/14 12:16:03;;;;;;;6.30;2.50;;;29.00;74.70;;;;;;4879190;29;20211;-72
2021/06/14 12:18:30;;;;;;;1.52;1.20;;;29.10;75.70;;;;;;4878679;29;20242;-74
2021/06/14 12:21:00;;;;;;;3.03;1.30;;;29.10;72.40;;;;;;4879457;29;20215;-74
2021/06/14 12:23:33;;;;;;;2.50;1.40;;;29.10;73.10;;;;;;4879663;29;20211;-74
2021/06/14 12:26:00;;;;;;;2.38;1.25;;;29.20;75.00;;;;;;4879512;29;20218;-74
2021/06/14 12:28:27;;;;;;;5.03;1.50;;;29.10;71.40;;;;;;4879605;29;20235;-73
2021/06/14 12:31:01;;;;;;;3.58;1.35;;;29.20;73.00;;;;;;4879549;29;20215;-74
2021/06/14 12:33:30;;;;;;;2.35;1.20;;;29.40;74.30;;;;;;4874070;29;20209;-74
2021/06/14 12:35:58;;;;;;;2.20;1.00;;;29.50;70.80;;;;;;4879283;29;20215;-74
2021/06/14 12:38:28;;;;;;;4.25;1.35;;;29.20;69.40;;;;;;4879437;29;20587;-74
2021/06/14 12:40:58;;;;;;;2.45;1.30;;;29.10;71.60;;;;;;4880763;29;20718;-74
2021/06/14 12:43:25;;;;;;;1.75;1.02;;;29.10;71.80;;;;;;4879687;29;20572;-74
2021/06/14 12:45:54;;;;;;;3.40;1.20;;;29.20;71.60;;;;;;4880468;29;20267;-74
2021/06/14 12:48:21;;;;;;;2.58;1.30;;;29.30;70.90;;;;;;4879806;29;20231;-73
2021/06/14 12:50:50;;;;;;;3.67;1.30;;;29.40;74.40;;;;;;4879911;29;20211;-73
2021/06/14 12:53:19;;;;;;;7.30;1.45;;;29.40;73.40;;;;;;4879831;29;20217;-73
2021/06/14 12:55:48;;;;;;;2.85;1.20;;;29.50;71.40;;;;;;4879133;29;20548;-73
2021/06/14 12:58:17;;;;;;;3.72;1.15;;;29.50;67.50;;;;;;4878990;29;20249;-74
2021/06/14 13:00:46;;;;;;;1.25;0.98;;;29.40;71.80;;;;;;4879137;29;20234;-74
2021/06/14 13:03:14;;;;;;;1.83;1.10;;;29.40;69.20;;;;;;4878585;29;20215;-74
2021/06/14 13:05:42;;;;;;;0.90;0.88;;;29.40;67.70;;;;;;4878618;29;20217;-73
2021/06/14 13:08:12;;;;;;;1.20;0.98;;;29.50;67.70;;;;;;4878689;29;20235;-74
2021/06/14 13:10:40;;;;;;;2.42;1.10;;;29.60;67.80;;;;;;4878599;29;20549;-74
2021/06/14 13:13:17;;;;;;;5.22;0.93;;;29.60;67.20;;;;;;4878511;29;20564;-72
2021/06/14 13:15:45;;;;;;;2.05;1.02;;;29.50;65.00;;;;;;4878723;29;20747;-72
2021/06/14 13:18:13;;;;;;;3.80;1.15;;;29.50;67.20;;;;;;4878417;29;20254;-73
2021/06/14 13:20:41;;;;;;;3.97;0.85;;;29.50;68.80;;;;;;4878753;29;20246;-73
2021/06/14 13:23:13;;;;;;;1.55;0.98;;;29.40;68.20;;;;;;4878302;29;20257;-71
2021/06/14 13:25:44;;;;;;;2.60;1.13;;;29.50;65.60;;;;;;4879675;29;20217;-74
2021/06/14 13:28:12;;;;;;;3.60;0.98;;;29.50;68.90;;;;;;4878504;29;20227;-74
2021/06/14 13:30:43;;;;;;;1.40;1.00;;;29.40;66.20;;;;;;4878510;29;20218;-73
2021/06/14 13:33:25;;;;;;;2.35;1.00;;;29.50;67.20;;;;;;4878018;29;20262;-74
2021/06/14 13:35:54;;;;;;;1.92;1.20;;;29.60;71.80;;;;;;4876867;29;20207;-74
2021/06/14 13:38:26;;;;;;;1.70;0.90;;;29.60;69.90;;;;;;4878045;29;20287;-74
2021/06/14 13:40:54;;;;;;;3.47;1.00;;;29.60;66.30;;;;;;4879027;29;20211;-73
2021/06/14 13:43:26;;;;;;;1.42;1.00;;;29.50;65.90;;;;;;4879221;29;20301;-73
2021/06/14 13:45:55;;;;;;;4.28;1.30;;;29.60;69.70;;;;;;4879193;29;20218;-73
2021/06/14 13:48:23;;;;;;;5.53;1.42;;;29.60;67.60;;;;;;4879197;29;20266;-73
2021/06/14 13:50:55;;;;;;;1.85;1.00;;;29.50;67.80;;;;;;4880138;29;20718;-73
2021/06/14 13:53:24;;;;;;;2.33;1.02;;;29.40;68.30;;;;;;4879361;29;20219;-74
2021/06/14 13:55:53;;;;;;;2.35;1.25;;;29.50;70.30;;;;;;4879616;29;20215;-71
2021/06/14 13:58:31;;;;;;;2.22;1.23;;;29.40;66.40;;;;;;4879256;29;20250;-73
2021/06/14 14:01:07;;;;;;;2.40;0.95;;;29.40;67.30;;;;;;4878424;29;20217;-73
2021/06/14 14:03:34;;;;;;;1.70;1.17;;;29.50;69.20;;;;;;4881209;29;20214;-74
2021/06/14 14:06:01;;;;;;;1.75;1.00;;;29.50;71.20;;;;;;4882042;29;20217;-74
2021/06/14 14:08:28;;;;;;;2.00;1.17;;;29.50;71.30;;;;;;4882784;29;20235;-76
2021/06/14 14:10:55;;;;;;;1.50;1.08;;;29.60;68.50;;;;;;4882323;29;20215;-74
2021/06/14 14:13:23;;;;;;;1.80;1.13;;;29.60;67.00;;;;;;4881434;29;20215;-75
2021/06/14 14:15:50;;;;;;;1.17;1.05;;;29.60;67.40;;;;;;4881870;29;20267;-75
2021/06/14 14:18:19;;;;;;;3.55;1.30;;;29.70;70.20;;;;;;4881568;29;20239;-74
2021/06/14 14:20:46;;;;;;;2.17;1.20;;;29.80;68.50;;;;;;4882178;29;20237;-76
2021/06/14 14:23:14;;;;;;;31.48;2.97;;;29.80;70.20;;;;;;4881228;29;20211;-74
2021/06/14 14:25:41;;;;;;;1.52;1.23;;;29.70;66.70;;;;;;4881488;29;20211;-74
2021/06/14 14:28:08;;;;;;;1.17;0.90;;;29.80;67.20;;;;;;4880938;29;20622;-70
2021/06/14 14:30:39;;;;;;;1.50;1.02;;;29.70;66.40;;;;;;4880752;29;20547;-73
2021/06/14 14:33:07;;;;;;;1.50;0.90;;;29.70;67.20;;;;;;4881714;29;20211;-74
2021/06/14 14:35:57;;;;;;;1.42;0.90;;;29.70;65.30;;;;;;4881549;29;20255;-76
2021/06/14 14:38:24;;;;;;;30.75;3.60;;;29.70;68.30;;;;;;4877305;29;20246;-77
2021/06/14 14:40:51;;;;;;;1.70;0.93;;;29.80;67.10;;;;;;4880348;29;20273;-74
2021/06/14 14:43:18;;;;;;;1.27;0.70;;;29.60;65.60;;;;;;4880696;29;20290;-74
2021/06/14 14:45:46;;;;;;;2.85;0.85;;;29.60;62.30;;;;;;4879561;29;20683;-74
2021/06/14 14:48:14;;;;;;;2.30;1.05;;;29.60;64.40;;;;;;4879520;29;20266;-77
2021/06/14 14:50:43;;;;;;;2.90;1.02;;;29.50;64.80;;;;;;4879218;29;20911;-75
2021/06/14 14:53:11;;;;;;;2.45;1.02;;;29.50;63.10;;;;;;4880221;29;20219;-74
2021/06/14 14:55:40;;;;;;;2.28;0.98;;;29.50;65.60;;;;;;4879533;29;20218;-74
2021/06/14 14:58:08;;;;;;;2.55;0.88;;;29.50;63.60;;;;;;4879231;29;20239;-75
2021/06/14 15:00:35;;;;;;;1.15;0.90;;;29.50;64.70;;;;;;4879732;29;20221;-74
2021/06/14 15:03:02;;;;;;;2.05;0.95;;;29.50;68.60;;;;;;4879936;29;20227;-75
2021/06/14 15:05:30;;;;;;;2.03;1.30;;;29.60;68.70;;;;;;4880608;29;20222;-74
2021/06/14 15:07:58;;;;;;;2.47;1.10;;;29.60;67.30;;;;;;4881001;29;20270;-75
2021/06/14 15:10:26;;;;;;;2.35;1.55;;;29.60;65.20;;;;;;4880670;29;20675;-74
2021/06/14 15:12:53;;;;;;;2.97;1.25;;;29.60;67.40;;;;;;4879479;29;20245;-79
2021/06/14 15:15:22;;;;;;;2.17;1.00;;;29.70;68.90;;;;;;4880480;29;20655;-73
2021/06/14 15:17:50;;;;;;;3.03;1.20;;;29.70;65.00;;;;;;4879789;29;20283;-74
2021/06/14 15:20:18;;;;;;;2.13;1.05;;;29.60;69.10;;;;;;4880570;29;20551;-73
2021/06/14 15:22:46;;;;;;;1.55;1.10;;;29.60;67.80;;;;;;4880794;29;20217;-73
2021/06/14 15:25:17;;;;;;;2.17;1.30;;;29.60;68.90;;;;;;4879667;29;20675;-72
2021/06/14 15:27:44;;;;;;;1.30;1.10;;;29.50;68.50;;;;;;4880343;29;20231;-72
2021/06/14 15:30:13;;;;;;;3.50;1.20;;;29.50;67.40;;;;;;4880312;29;20570;-72
2021/06/14 15:32:44;;;;;;;4.32;1.35;;;29.50;70.30;;;;;;4880244;29;20219;-72
2021/06/14 15:35:12;;;;;;;2.60;1.27;;;29.40;70.60;;;;;;4880002;29;20216;-73
2021/06/14 15:37:39;;;;;;;2.03;1.20;;;29.40;69.60;;;;;;4880410;29;20257;-73
2021/06/14 15:40:07;;;;;;;1.33;1.13;;;29.20;66.40;;;;;;4880199;29;20250;-72
2021/06/14 15:42:35;;;;;;;2.13;1.13;;;29.00;69.10;;;;;;4880169;29;20215;-72
2021/06/14 15:45:03;;;;;;;2.55;1.40;;;29.00;68.80;;;;;;4879882;29;20693;-72
2021/06/14 15:47:30;;;;;;;1.88;0.93;;;29.20;69.90;;;;;;4879609;29;20242;-73
2021/06/14 15:49:57;;;;;;;2.63;1.08;;;29.20;70.10;;;;;;4879983;29;20676;-72
2021/06/14 15:52:23;;;;;;;1.65;1.30;;;29.20;69.00;;;;;;4879454;29;20211;-72
2021/06/14 15:54:50;;;;;;;2.50;1.45;;;29.20;68.20;;;;;;4879343;29;20211;-73
2021/06/14 15:57:17;;;;;;;1.52;1.05;;;29.40;70.60;;;;;;4879444;29;20697;-72
2021/06/14 15:59:45;;;;;;;2.80;1.20;;;29.30;70.40;;;;;;4879808;29;20250;-72
2021/06/14 16:02:13;;;;;;;1.73;0.93;;;29.30;71.30;;;;;;4879515;29;20222;-72
2021/06/14 16:04:40;;;;;;;2.47;1.30;;;29.20;68.60;;;;;;4879463;29;20211;-72
2021/06/14 16:07:06;;;;;;;3.30;1.20;;;29.20;68.90;;;;;;4879570;29;20272;-72
2021/06/14 16:09:33;;;;;;;5.15;1.60;;;29.20;68.50;;;;;;4879589;29;20203;-72
2021/06/14 16:12:00;;;;;;;1.70;1.00;;;29.20;71.50;;;;;;4879524;29;20215;-74
2021/06/14 16:14:27;;;;;;;2.05;1.00;;;29.20;70.60;;;;;;4879582;29;20213;-74
2021/06/14 16:16:55;;;;;;;1.38;1.02;;;29.10;71.80;;;;;;4879578;29;20218;-73
2021/06/14 16:19:21;;;;;;;2.08;1.13;;;29.00;71.30;;;;;;4878165;29;20258;-73
2021/06/14 16:21:48;;;;;;;1.48;1.10;;;29.10;71.00;;;;;;4879338;29;20211;-73
2021/06/14 16:24:17;;;;;;;4.03;1.35;;;29.00;71.50;;;;;;4879013;29;20225;-73
2021/06/14 16:26:44;;;;;;;3.08;1.30;;;29.10;72.90;;;;;;4878944;29;20211;-73
2021/06/14 16:29:12;;;;;;;1.65;1.30;;;29.10;70.90;;;;;;4879352;29;20227;-73
2021/06/14 16:31:39;;;;;;;1.27;1.05;;;29.20;73.10;;;;;;4878895;29;20261;-73
2021/06/14 16:34:07;;;;;;;1.10;1.00;;;29.20;72.00;;;;;;4879151;29;20218;-75
2021/06/14 16:36:38;;;;;;;2.10;1.08;;;29.20;73.50;;;;;;4879588;29;20211;-73
2021/06/14 16:39:06;;;;;;;1.10;0.93;;;29.20;71.40;;;;;;4878527;29;20258;-73
2021/06/14 16:41:33;;;;;;;3.95;1.20;;;29.20;72.70;;;;;;4879090;29;20215;-73
2021/06/14 16:44:00;;;;;;;2.60;1.20;;;29.20;72.60;;;;;;4879225;29;20298;-72
2021/06/14 16:46:27;;;;;;;1.00;0.90;;;29.10;73.60;;;;;;4878916;29;20207;-73
2021/06/14 16:48:54;;;;;;;4.22;1.17;;;29.10;72.80;;;;;;4860426;29;20240;-73
2021/06/14 16:51:22;;;;;;;8.80;1.25;;;29.10;72.10;;;;;;4860390;29;20212;-72
2021/06/14 16:53:49;;;;;;;2.38;1.10;;;29.10;71.20;;;;;;4865061;29;20229;-73
2021/06/14 16:56:15;;;;;;;2.03;1.30;;;29.10;71.70;;;;;;4879321;29;20207;-73
2021/06/14 16:58:42;;;;;;;10.70;1.58;;;29.00;71.50;;;;;;4878254;29;20253;-73
2021/06/14 17:01:10;;;;;;;3.80;1.23;;;29.00;71.90;;;;;;4878289;29;20304;-73
2021/06/14 17:03:36;;;;;;;1.30;1.10;;;28.80;72.00;;;;;;4877516;29;20570;-72
2021/06/14 17:06:03;;;;;;;2.05;1.20;;;28.70;71.20;;;;;;4877936;29;20559;-73
2021/06/14 17:08:32;;;;;;;17.13;1.80;;;28.60;74.10;;;;;;4878570;29;20235;-73
2021/06/14 17:10:58;;;;;;;4.30;1.20;;;28.70;73.20;;;;;;4879311;29;20237;-72
2021/06/14 17:13:25;;;;;;;5.45;1.50;;;28.70;72.00;;;;;;4878509;29;20211;-72
2021/06/14 17:15:52;;;;;;;3.60;1.35;;;28.60;74.10;;;;;;4878217;29;20211;-73
2021/06/14 17:18:19;;;;;;;2.70;1.08;;;28.60;73.20;;;;;;4878497;29;20231;-72
2021/06/14 17:20:46;;;;;;;3.10;1.10;;;28.60;74.30;;;;;;4878457;29;20239;-72
2021/06/14 17:23:13;;;;;;;2.50;1.20;;;28.60;74.10;;;;;;4878787;29;20215;-72
2021/06/14 17:25:41;;;;;;;2.55;1.30;;;28.60;75.30;;;;;;4878921;29;20222;-73
2021/06/14 17:28:07;;;;;;;5.32;1.83;;;28.70;77.40;;;;;;4878431;29;20241;-73
2021/06/14 17:30:34;;;;;;;6.82;1.83;;;28.60;77.80;;;;;;4878307;29;20670;-74
2021/06/14 17:33:01;;;;;;;5.18;1.73;;;28.50;79.30;;;;;;4878256;29;20211;-73
2021/06/14 17:35:28;;;;;;;6.93;2.15;;;28.40;80.00;;;;;;4878252;29;20578;-73
2021/06/14 17:37:57;;;;;;;3.92;1.63;;;28.30;80.80;;;;;;4881996;29;20227;-73
2021/06/14 17:40:24;;;;;;;4.75;1.75;;;28.30;81.10;;;;;;4882150;29;20256;-72
2021/06/14 17:42:52;;;;;;;4.30;2.08;;;28.20;81.10;;;;;;4881805;29;20590;-73
2021/06/14 17:45:19;;;;;;;5.30;1.98;;;28.20;80.30;;;;;;4882347;29;20302;-72
2021/06/14 17:47:49;;;;;;;7.43;2.67;;;28.10;80.80;;;;;;4882036;29;20242;-73
2021/06/14 17:50:19;;;;;;;3.58;1.90;;;28.10;82.00;;;;;;4882561;29;20221;-73
2021/06/14 17:52:46;;;;;;;5.28;2.20;;;28.10;82.90;;;;;;4882123;29;20217;-72
2021/06/14 17:55:14;;;;;;;4.00;2.00;;;28.10;82.60;;;;;;4882322;29;20207;-73
2021/06/14 17:57:41;;;;;;;4.80;1.65;;;28.10;83.10;;;;;;4881622;29;20231;-73
2021/06/14 18:00:11;;;;;;;2.50;1.80;;;28.10;82.70;;;;;;4881703;29;20242;-73
2021/06/14 18:02:38;;;;;;;5.82;2.10;;;28.10;82.70;;;;;;4881562;29;20698;-72
2021/06/14 18:05:06;;;;;;;4.53;1.92;;;28.00;82.70;;;;;;4882177;29;20218;-73
2021/06/14 18:07:33;;;;;;;4.93;1.73;;;27.90;83.30;;;;;;4881530;29;20231;-74
2021/06/14 18:10:00;;;;;;;3.10;1.63;;;27.80;83.20;;;;;;4881654;29;20316;-74
2021/06/14 18:12:27;;;;;;;2.55;1.60;;;27.60;84.00;;;;;;4881609;29;20207;-73
2021/06/14 18:14:54;;;;;;;3.65;1.60;;;27.50;84.30;;;;;;4880994;29;20227;-73
2021/06/14 18:17:23;;;;;;;12.93;2.58;;;27.50;84.30;;;;;;4881441;29;20235;-71
2021/06/14 18:19:50;;;;;;;4.45;1.90;;;27.50;84.90;;;;;;4881227;29;20238;-71
2021/06/14 18:22:23;;;;;;;3.65;1.80;;;27.50;84.50;;;;;;4881748;29;20218;-71
2021/06/14 18:24:52;;;;;;;4.57;1.80;;;27.40;84.60;;;;;;4880756;29;20294;-72
2021/06/14 18:27:19;;;;;;;3.97;1.70;;;27.50;84.70;;;;;;4880933;29;20215;-71
2021/06/14 18:29:45;;;;;;;3.70;1.90;;;27.50;85.70;;;;;;4881032;29;20686;-71
2021/06/14 18:32:12;;;;;;;4.35;2.30;;;27.50;85.40;;;;;;4881323;29;20634;-73
2021/06/14 18:34:40;;;;;;;5.78;1.90;;;27.40;85.40;;;;;;4880971;29;20211;-71
2021/06/14 18:37:08;;;;;;;6.97;2.10;;;27.40;84.80;;;;;;4881247;29;20218;-71
2021/06/14 18:39:34;;;;;;;2.85;2.08;;;27.40;85.00;;;;;;4881523;29;20245;-71
2021/06/14 18:42:01;;;;;;;5.00;1.80;;;27.40;85.60;;;;;;4881092;29;20615;-74
2021/06/14 18:44:29;;;;;;;2.85;1.95;;;27.20;85.90;;;;;;4881186;29;20214;-72
2021/06/14 18:46:56;;;;;;;3.42;2.28;;;27.20;86.50;;;;;;4881045;29;20219;-71
2021/06/14 18:49:22;;;;;;;6.00;2.10;;;27.10;86.80;;;;;;4880433;29;20235;-72
2021/06/14 18:51:50;;;;;;;4.10;1.70;;;27.00;86.40;;;;;;4880910;29;20226;-72
2021/06/14 18:54:18;;;;;;;3.35;2.20;;;26.90;86.50;;;;;;4880964;29;20222;-72
2021/06/14 18:56:45;;;;;;;6.20;2.30;;;26.80;86.30;;;;;;4880665;29;20207;-74
2021/06/14 18:59:13;;;;;;;4.38;2.00;;;26.80;86.50;;;;;;4879884;29;20291;-75
2021/06/14 19:01:39;;;;;;;5.22;1.98;;;26.70;86.00;;;;;;4880645;29;20223;-73
2021/06/14 19:04:09;;;;;;;4.70;1.77;;;26.60;86.80;;;;;;4880498;29;20663;-75
2021/06/14 19:06:36;;;;;;;3.72;2.00;;;26.40;87.50;;;;;;4879024;29;20667;-73
2021/06/14 19:09:06;;;;;;;3.53;1.80;;;26.30;87.60;;;;;;4878262;29;20328;-73
2021/06/14 19:11:34;;;;;;;8.07;1.90;;;26.20;87.70;;;;;;4881803;29;20319;-73
2021/06/14 19:14:01;;;;;;;6.07;2.35;;;26.20;87.80;;;;;;4881382;29;20217;-73
2021/06/14 19:16:28;;;;;;;6.43;2.15;;;26.20;88.50;;;;;;4880796;29;20236;-72
2021/06/14 19:18:55;;;;;;;4.50;1.77;;;26.00;88.80;;;;;;4878004;29;20227;-73
2021/06/14 19:21:22;;;;;;;4.15;2.40;;;25.90;89.30;;;;;;4879827;29;20250;-73
2021/06/14 19:23:49;;;;;;;3.85;1.80;;;25.80;89.80;;;;;;4880694;29;20222;-72
2021/06/14 19:26:17;;;;;;;3.63;1.70;;;25.80;90.10;;;;;;4879521;29;20208;-73
2021/06/14 19:28:45;;;;;;;4.03;2.22;;;25.70;90.10;;;;;;4878677;29;20325;-73
2021/06/14 19:31:13;;;;;;;6.25;2.30;;;25.60;90.30;;;;;;4880110;29;20211;-72
2021/06/14 19:33:39;;;;;;;5.15;2.10;;;25.50;90.10;;;;;;4880856;29;20579;-72
2021/06/14 19:36:07;;;;;;;3.22;1.80;;;25.40;90.10;;;;;;4880730;29;20211;-73
2021/06/14 19:38:35;;;;;;;2.85;1.80;;;25.40;90.00;;;;;;4880944;29;20231;-73
2021/06/14 19:41:02;;;;;;;4.70;1.80;;;25.20;90.20;;;;;;4880695;29;20243;-73
2021/06/14 19:43:30;;;;;;;6.05;1.92;;;25.10;90.50;;;;;;4880459;29;20218;-72
2021/06/14 19:45:57;;;;;;;4.10;1.77;;;25.00;90.90;;;;;;4880713;29;20213;-73
2021/06/14 19:48:23;;;;;;;4.05;2.05;;;24.90;90.50;;;;;;4880147;29;20235;-73
2021/06/14 19:50:50;;;;;;;4.10;1.90;;;24.90;90.40;;;;;;4880471;29;20217;-73
2021/06/14 19:53:17;;;;;;;4.75;1.85;;;24.90;90.40;;;;;;4880837;29;20218;-72
2021/06/14 19:55:44;;;;;;;3.65;1.80;;;24.90;90.60;;;;;;4880326;29;20663;-73
2021/06/14 19:58:12;;;;;;;4.68;1.63;;;24.70;90.90;;;;;;4881035;29;20594;-72
2021/06/14 20:00:40;;;;;;;4.90;2.45;;;24.60;90.80;;;;;;4879715;29;20242;-73
2021/06/14 20:03:07;;;;;;;3.22;1.70;;;24.50;91.70;;;;;;4880007;29;20225;-73
2021/06/14 20:05:35;;;;;;;4.07;1.98;;;24.40;92.00;;;;;;4880411;29;20217;-73
2021/06/14 20:08:01;;;;;;;3.65;2.20;;;24.20;91.60;;;;;;4880080;29;20694;-73
2021/06/14 20:10:28;;;;;;;8.70;2.65;;;24.20;91.70;;;;;;4880239;29;20215;-73
2021/06/14 20:12:55;;;;;;;2.92;1.77;;;24.10;92.00;;;;;;4880117;29;20222;-73
2021/06/14 20:15:24;;;;;;;4.15;1.80;;;24.10;91.70;;;;;;4879986;29;20211;-73
2021/06/14 20:17:53;;;;;;;3.92;1.95;;;24.00;92.80;;;;;;4879670;29;20243;-73
2021/06/14 20:20:21;;;;;;;4.68;1.90;;;24.00;92.30;;;;;;4880020;29;20246;-73
2021/06/14 20:22:48;;;;;;;5.28;1.90;;;23.90;92.50;;;;;;4879891;29;20207;-73
2021/06/14 20:25:16;;;;;;;2.83;1.58;;;23.80;92.90;;;;;;4879836;29;20298;-73
2021/06/14 20:27:44;;;;;;;4.53;2.05;;;23.80;92.50;;;;;;4879715;29;20241;-73
2021/06/14 20:30:14;;;;;;;4.55;1.63;;;23.70;92.20;;;;;;4879778;29;20227;-73
2021/06/14 20:32:41;;;;;;;6.93;1.70;;;23.70;92.00;;;;;;4880259;29;20221;-73
2021/06/14 20:35:11;;;;;;;4.78;1.88;;;23.70;92.30;;;;;;4879963;29;20221;-73
2021/06/14 20:37:38;;;;;;;4.18;1.75;;;23.60;92.20;;;;;;4879664;29;20219;-73
2021/06/14 20:40:07;;;;;;;5.78;1.98;;;23.50;91.90;;;;;;4879564;29;20235;-73
2021/06/14 20:42:33;;;;;;;3.38;1.70;;;23.50;91.40;;;;;;4879581;29;20211;-73
2021/06/14 20:45:00;;;;;;;2.28;1.48;;;23.60;91.60;;;;;;4879623;29;20575;-73
2021/06/14 20:47:28;;;;;;;4.15;1.90;;;23.50;91.50;;;;;;4879526;29;20227;-73
2021/06/14 20:49:54;;;;;;;2.95;1.58;;;23.50;91.20;;;;;;4879768;29;20225;-73
2021/06/14 20:52:23;;;;;;;2.85;1.70;;;23.40;90.80;;;;;;4879627;29;20218;-73
2021/06/14 20:54:50;;;;;;;3.47;1.60;;;23.50;90.50;;;;;;4879492;29;20217;-73